Time;durP1;ratioP1;P1;durP2;ratioP2;P2;SDS_P1;SDS_P2;PMS_P1;PMS_P2;Temp;Humidity;BMP_temperature;BMP_pressure;BME280_temperature;BME280_humidity;BME280_pressure;Samples;Min_cycle;Max_cycle;Signal;HPM_P1;HPM_P2
2021/08/09 00:02:23;;;;;;;38.67;4.95;;;;;;;14.43;82.02;101359.34;5036789;28;20103;-76
2021/08/09 00:04:49;;;;;;;24.67;4.03;;;;;;;14.40;82.22;101356.97;5019104;28;20029;-76
2021/08/09 00:07:16;;;;;;;26.60;5.07;;;;;;;14.36;82.47;101366.31;5037026;28;20037;-76
2021/08/09 00:09:41;;;;;;;23.52;4.38;;;;;;;14.33;82.53;101369.28;5036943;28;20156;-76
2021/08/09 00:12:06;;;;;;;27.77;4.95;;;;;;;14.32;82.73;101374.81;5036309;28;20465;-76
2021/08/09 00:14:32;;;;;;;27.92;4.38;;;;;;;14.28;83.02;101371.56;5036697;28;20040;-75
2021/08/09 00:16:57;;;;;;;20.42;4.60;;;;;;;14.26;82.95;101368.19;5036687;28;20386;-75
2021/08/09 00:19:23;;;;;;;30.35;5.05;;;;;;;14.25;82.66;101369.19;5036527;28;20037;-76
2021/08/09 00:21:48;;;;;;;31.15;5.05;;;;;;;14.25;82.24;101370.03;5036488;28;20057;-75
2021/08/09 00:24:14;;;;;;;28.55;5.15;;;;;;;14.25;82.40;101385.25;5036692;28;20458;-76
2021/08/09 00:26:39;;;;;;;23.23;4.70;;;;;;;14.24;82.34;101372.84;5036514;28;20038;-75
2021/08/09 00:29:05;;;;;;;23.80;4.57;;;;;;;14.21;82.48;101370.47;5036386;28;20044;-75
2021/08/09 00:31:30;;;;;;;28.27;4.68;;;;;;;14.20;82.01;101371.47;5037211;28;20038;-76
2021/08/09 00:33:56;;;;;;;23.08;4.80;;;;;;;14.18;82.70;101376.13;5036972;28;20037;-75
2021/08/09 00:36:21;;;;;;;22.67;4.28;;;;;;;14.14;82.84;101375.59;5035891;28;20041;-76
2021/08/09 00:38:47;;;;;;;22.10;4.93;;;;;;;14.12;82.28;101366.84;5036108;28;20091;-76
2021/08/09 00:41:12;;;;;;;18.25;4.22;;;;;;;14.09;82.51;101369.84;5036051;28;20033;-75
2021/08/09 00:43:38;;;;;;;24.55;4.15;;;;;;;14.06;82.52;101371.00;5018230;28;20065;-76
2021/08/09 00:46:04;;;;;;;24.10;4.43;;;;;;;14.08;82.75;101376.19;5036064;28;20061;-75
2021/08/09 00:48:36;;;;;;;18.25;4.57;;;;;;;14.06;82.90;101373.66;5035826;28;20037;-75
2021/08/09 00:51:03;;;;;;;22.92;4.15;;;;;;;14.06;81.82;101368.31;5036530;28;20053;-75
2021/08/09 00:53:29;;;;;;;20.30;4.20;;;;;;;14.07;82.43;101367.31;5035849;28;20085;-75
2021/08/09 00:55:54;;;;;;;29.17;4.97;;;;;;;14.06;82.46;101367.47;5035832;28;20037;-76
2021/08/09 00:58:20;;;;;;;27.58;4.13;;;;;;;14.08;82.65;101368.16;5035658;28;20454;-75
2021/08/09 01:00:46;;;;;;;25.30;4.63;;;;;;;14.07;83.89;101372.66;5036094;28;20025;-75
2021/08/09 01:03:11;;;;;;;21.42;4.70;;;;;;;14.05;83.63;101368.47;5035676;28;20029;-76
2021/08/09 01:05:37;;;;;;;27.23;5.40;;;;;;;14.03;83.85;101373.97;5035696;28;20454;-76
2021/08/09 01:08:22;;;;;;;31.63;4.45;;;;;;;14.01;83.60;101372.44;5035067;28;20041;-75
2021/08/09 01:11:12;;;;;;;31.80;4.82;;;;;;;14.02;83.13;101377.63;5019204;28;20029;-76
2021/08/09 01:13:53;;;;;;;23.65;4.78;;;;;;;14.03;82.88;101375.78;5019909;28;20032;-76
2021/08/09 01:16:26;;;;;;;30.65;4.25;;;;;;;14.00;83.26;101376.09;5035733;28;20026;-75
2021/08/09 01:18:57;;;;;;;24.35;3.95;;;;;;;13.96;82.95;101380.91;5035932;28;20091;-75
2021/08/09 01:21:23;;;;;;;25.25;4.55;;;;;;;13.92;83.61;101380.34;5035591;28;20029;-75
2021/08/09 01:24:13;;;;;;;21.35;5.03;;;;;;;13.90;83.50;101376.16;5036075;28;20410;-75
2021/08/09 01:26:38;;;;;;;23.58;4.28;;;;;;;13.90;83.13;101381.50;5036021;28;20128;-75
2021/08/09 01:29:10;;;;;;;23.58;4.25;;;;;;;13.89;83.00;101395.84;5035599;28;20033;-75
2021/08/09 01:31:45;;;;;;;23.33;4.75;;;;;;;13.90;83.33;101390.34;5034807;28;20120;-75
2021/08/09 01:34:12;;;;;;;24.23;4.20;;;;;;;13.91;83.15;101392.03;5035639;28;20383;-75
2021/08/09 01:36:42;;;;;;;21.88;4.50;;;;;;;13.93;82.99;101391.91;5034804;28;20040;-75
2021/08/09 01:39:09;;;;;;;19.67;4.32;;;;;;;13.92;82.59;101385.69;5017606;28;20108;-75
2021/08/09 01:41:35;;;;;;;24.10;4.32;;;;;;;13.92;83.06;101396.38;5035536;28;20508;-75
2021/08/09 01:44:03;;;;;;;18.65;3.67;;;;;;;13.90;83.24;101398.38;5035281;28;20083;-75
2021/08/09 01:46:28;;;;;;;22.67;4.85;;;;;;;13.88;83.55;101396.84;5035365;28;20030;-76
2021/08/09 01:48:55;;;;;;;19.40;3.90;;;;;;;13.88;83.40;101399.50;5035183;28;20468;-75
2021/08/09 01:51:21;;;;;;;23.42;4.97;;;;;;;13.90;83.20;101400.22;5034750;28;20068;-76
2021/08/09 01:53:46;;;;;;;23.45;4.55;;;;;;;13.91;83.16;101396.53;5034826;28;20105;-75
2021/08/09 01:56:11;;;;;;;24.05;4.65;;;;;;;13.92;82.74;101403.56;5034812;28;20036;-75
2021/08/09 01:58:37;;;;;;;26.67;4.55;;;;;;;13.92;82.98;101403.56;5035077;28;20120;-75
2021/08/09 02:01:06;;;;;;;19.88;4.25;;;;;;;13.92;82.29;101407.09;5034701;28;20059;-75
2021/08/09 02:03:32;;;;;;;22.75;3.75;;;;;;;13.90;82.40;101406.41;5034732;28;20037;-75
2021/08/09 02:05:57;;;;;;;21.10;3.65;;;;;;;13.89;81.55;101410.06;5034385;28;20508;-75
2021/08/09 02:08:23;;;;;;;20.38;3.90;;;;;;;13.87;82.19;101408.53;5013079;28;20383;-75
2021/08/09 02:10:55;;;;;;;19.08;3.90;;;;;;;13.85;82.15;101414.03;5015046;28;20034;-75
2021/08/09 02:13:30;;;;;;;26.50;4.63;;;;;;;13.81;81.66;101417.97;5014554;28;20040;-75
2021/08/09 02:16:06;;;;;;;19.25;3.65;;;;;;;13.76;81.64;101420.25;5015292;28;20038;-75
2021/08/09 02:18:42;;;;;;;24.83;4.05;;;;;;;13.69;82.01;101420.00;5014765;28;20462;-75
2021/08/09 02:21:11;;;;;;;25.17;3.97;;;;;;;13.63;81.82;101417.91;5014619;28;20034;-75
2021/08/09 02:23:53;;;;;;;22.02;4.55;;;;;;;13.60;81.96;101417.34;5014138;28;20091;-75
2021/08/09 02:26:29;;;;;;;25.13;4.32;;;;;;;13.54;82.20;101421.41;5014500;28;20026;-75
2021/08/09 02:29:04;;;;;;;18.88;4.15;;;;;;;13.47;82.11;101423.00;5015035;28;20061;-75
2021/08/09 02:31:31;;;;;;;14.60;4.00;;;;;;;13.46;82.29;101418.63;5014637;28;20022;-74
2021/08/09 02:33:58;;;;;;;22.08;4.68;;;;;;;13.45;82.47;101419.63;5014326;28;20125;-74
2021/08/09 02:36:24;;;;;;;23.45;3.70;;;;;;;13.39;82.82;101413.88;5013840;28;20112;-73
2021/08/09 02:38:50;;;;;;;24.58;4.70;;;;;;;13.36;82.58;101414.16;5014459;28;20030;-74
2021/08/09 02:41:16;;;;;;;18.98;4.00;;;;;;;13.31;82.90;101413.69;5014532;28;20425;-74
2021/08/09 02:43:42;;;;;;;21.63;4.60;;;;;;;13.27;83.24;101423.00;5014118;28;20401;-74
2021/08/09 02:46:08;;;;;;;14.55;3.50;;;;;;;13.25;83.11;101416.13;5014392;28;20037;-74
2021/08/09 02:48:36;;;;;;;20.70;5.22;;;;;;;13.19;83.53;101428.22;5012748;28;20394;-75
2021/08/09 02:51:02;;;;;;;26.98;4.57;;;;;;;13.14;83.78;101422.47;5014132;28;20038;-74
2021/08/09 02:53:28;;;;;;;24.00;4.78;;;;;;;13.10;84.65;101426.38;5013889;28;20490;-74
2021/08/09 02:56:00;;;;;;;24.20;4.55;;;;;;;13.11;84.42;101425.41;5014124;28;20057;-74
2021/08/09 02:58:25;;;;;;;19.58;4.00;;;;;;;13.10;84.36;101415.69;5013918;28;20477;-75
2021/08/09 03:00:54;;;;;;;17.10;4.43;;;;;;;13.15;84.53;101422.31;5014330;28;20030;-75
2021/08/09 03:03:27;;;;;;;27.02;4.93;;;;;;;13.17;84.23;101422.19;5013627;28;20486;-74
2021/08/09 03:05:55;;;;;;;15.38;3.88;;;;;;;13.18;83.82;101421.16;5013807;28;20034;-74
2021/08/09 03:08:22;;;;;;;23.70;4.55;;;;;;;13.19;83.61;101417.53;5017132;28;20050;-74
2021/08/09 03:10:49;;;;;;;21.02;3.92;;;;;;;13.19;83.97;101428.22;5033425;28;20046;-75
2021/08/09 03:13:19;;;;;;;29.63;4.80;;;;;;;13.21;83.73;101419.06;5034278;28;20077;-74
2021/08/09 03:15:45;;;;;;;22.42;4.13;;;;;;;13.21;83.98;101427.09;5033450;28;20029;-75
2021/08/09 03:18:10;;;;;;;21.38;4.10;;;;;;;13.20;84.49;101427.22;5033564;28;20044;-74
2021/08/09 03:20:36;;;;;;;29.95;5.53;;;;;;;13.17;85.53;101424.84;5033835;28;20087;-75
2021/08/09 03:23:01;;;;;;;20.10;4.28;;;;;;;13.13;85.58;101434.13;5033979;28;20064;-74
2021/08/09 03:25:26;;;;;;;30.73;4.78;;;;;;;13.09;86.02;101432.72;5033124;28;20061;-74
2021/08/09 03:27:52;;;;;;;26.70;4.55;;;;;;;13.07;85.62;101426.69;5032910;28;20527;-74
2021/08/09 03:30:17;;;;;;;27.27;5.00;;;;;;;13.07;85.36;101424.00;5035147;28;20112;-75
2021/08/09 03:32:43;;;;;;;34.03;4.60;;;;;;;13.04;85.57;101428.63;5037234;28;20116;-74
2021/08/09 03:35:08;;;;;;;26.88;5.13;;;;;;;13.02;85.88;101441.28;5037105;28;20038;-74
2021/08/09 03:37:34;;;;;;;26.02;4.57;;;;;;;12.98;86.44;101428.34;5036813;28;20530;-75
2021/08/09 03:40:00;;;;;;;27.48;4.60;;;;;;;12.95;86.18;101433.97;5037277;28;20068;-75
2021/08/09 03:42:25;;;;;;;24.20;4.90;;;;;;;12.92;86.35;101437.78;5037190;28;20030;-74
2021/08/09 03:44:51;;;;;;;27.48;5.43;;;;;;;12.92;86.88;101440.44;5037654;28;20076;-75
2021/08/09 03:47:16;;;;;;;21.98;4.97;;;;;;;12.86;86.82;101431.16;5037471;28;20046;-74
2021/08/09 03:49:41;;;;;;;22.00;4.63;;;;;;;12.84;86.68;101433.13;5037337;28;20038;-75
2021/08/09 03:52:07;;;;;;;20.30;4.18;;;;;;;12.84;87.33;101427.78;5036779;28;20589;-74
2021/08/09 03:54:32;;;;;;;23.65;5.07;;;;;;;12.86;87.22;101433.81;5037487;28;20037;-75
2021/08/09 03:56:58;;;;;;;22.30;4.82;;;;;;;12.86;86.84;101425.81;5036885;28;20485;-74
2021/08/09 03:59:23;;;;;;;27.90;4.75;;;;;;;12.90;86.70;101436.22;5037212;28;20036;-74
2021/08/09 04:01:49;;;;;;;31.13;5.22;;;;;;;12.91;86.17;101433.41;5036441;28;20119;-74
2021/08/09 04:04:16;;;;;;;16.67;4.10;;;;;;;12.90;86.70;101433.53;5036783;28;20038;-75
2021/08/09 04:06:41;;;;;;;24.65;4.95;;;;;;;12.90;86.96;101433.53;5037471;28;20030;-75
2021/08/09 04:09:07;;;;;;;31.05;4.95;;;;;;;12.90;86.64;101438.88;5036242;28;20096;-74
2021/08/09 04:11:33;;;;;;;26.85;4.50;;;;;;;12.90;86.84;101430.88;5036327;28;20034;-76
2021/08/09 04:13:59;;;;;;;31.23;5.78;;;;;;;12.91;86.74;101435.25;5036588;28;20064;-74
2021/08/09 04:16:25;;;;;;;23.83;4.38;;;;;;;12.91;86.51;101438.75;5036533;28;20073;-75
2021/08/09 04:18:50;;;;;;;28.13;4.95;;;;;;;12.92;86.61;101448.44;5036892;28;20059;-74
2021/08/09 04:21:16;;;;;;;25.40;4.22;;;;;;;12.91;86.71;101446.75;5036571;28;20533;-74
2021/08/09 04:23:41;;;;;;;30.45;4.43;;;;;;;12.91;86.52;101445.91;5036680;28;20525;-75
2021/08/09 04:26:07;;;;;;;24.70;5.18;;;;;;;12.89;87.14;101446.06;5018919;28;20494;-75
2021/08/09 04:28:32;;;;;;;23.73;4.75;;;;;;;12.91;86.47;101448.59;5037091;28;20033;-75
2021/08/09 04:30:57;;;;;;;22.38;4.10;;;;;;;12.91;86.48;101448.59;5036215;28;20107;-74
2021/08/09 04:33:23;;;;;;;22.13;4.53;;;;;;;12.93;86.01;101451.94;5036018;28;20061;-75
2021/08/09 04:35:48;;;;;;;17.48;4.07;;;;;;;12.94;86.26;101448.31;5036024;28;20033;-75
2021/08/09 04:38:13;;;;;;;22.38;4.13;;;;;;;12.94;85.91;101446.47;5019088;28;20034;-75
2021/08/09 04:40:40;;;;;;;27.00;4.72;;;;;;;12.96;86.32;101441.03;5035792;28;20569;-75
2021/08/09 04:43:05;;;;;;;20.00;4.68;;;;;;;12.95;85.87;101448.16;5035896;28;20148;-75
2021/08/09 04:45:31;;;;;;;18.85;3.83;;;;;;;12.97;85.49;101448.03;5036237;28;20478;-75
2021/08/09 04:47:56;;;;;;;22.65;3.95;;;;;;;12.98;85.32;101447.88;5036965;28;20099;-75
2021/08/09 04:50:22;;;;;;;19.92;3.92;;;;;;;13.00;85.02;101448.63;5035934;28;20060;-75
2021/08/09 04:52:47;;;;;;;17.95;4.40;;;;;;;13.03;84.96;101450.13;5036551;28;20036;-75
2021/08/09 04:55:13;;;;;;;19.90;4.18;;;;;;;13.02;84.90;101451.97;5035880;28;20033;-75
2021/08/09 04:57:39;;;;;;;23.77;4.07;;;;;;;13.01;85.24;101457.47;5036017;28;20030;-76
2021/08/09 05:00:07;;;;;;;19.80;3.90;;;;;;;13.00;84.49;101456.63;5036143;28;20029;-75
2021/08/09 05:02:32;;;;;;;22.27;3.60;;;;;;;13.03;84.36;101459.00;5018361;28;20068;-75
2021/08/09 05:05:01;;;;;;;24.42;3.53;;;;;;;13.08;84.33;101453.25;5036460;28;20447;-74
2021/08/09 05:07:26;;;;;;;21.55;4.00;;;;;;;13.12;84.09;101460.00;5036778;28;20038;-73
2021/08/09 05:09:51;;;;;;;12.77;3.13;;;;;;;13.19;83.60;101455.75;5035168;28;20516;-75
2021/08/09 05:12:17;;;;;;;13.40;3.15;;;;;;;13.28;82.48;101454.06;5035359;28;20045;-75
2021/08/09 05:14:42;;;;;;;13.50;2.90;;;;;;;13.34;82.59;101456.19;5035862;28;20060;-75
2021/08/09 05:17:07;;;;;;;14.95;3.33;;;;;;;13.39;82.45;101448.63;5035382;28;20065;-75
2021/08/09 05:19:33;;;;;;;18.38;3.90;;;;;;;13.46;82.26;101458.72;5001337;28;20052;-74
2021/08/09 05:21:58;;;;;;;16.13;3.17;;;;;;;13.51;82.45;101451.97;5035167;28;20072;-73
2021/08/09 05:24:24;;;;;;;17.15;3.05;;;;;;;13.55;82.35;101453.38;5035633;28;20033;-74
2021/08/09 05:26:49;;;;;;;20.05;4.00;;;;;;;13.59;82.38;101459.28;5035152;28;20121;-74
2021/08/09 05:29:15;;;;;;;15.48;3.00;;;;;;;13.58;82.19;101450.44;5035078;28;20474;-74
2021/08/09 05:31:41;;;;;;;15.60;3.15;;;;;;;13.59;82.84;101451.25;5017440;28;20493;-74
2021/08/09 05:34:07;;;;;;;26.17;3.05;;;;;;;13.59;82.66;101459.28;5035034;28;20034;-74
2021/08/09 05:36:34;;;;;;;13.88;3.15;;;;;;;13.63;82.38;101455.34;5035011;28;20045;-74
2021/08/09 05:39:00;;;;;;;15.38;3.15;;;;;;;13.64;81.67;101465.03;5034594;28;20026;-74
2021/08/09 05:41:25;;;;;;;20.85;3.45;;;;;;;13.60;82.31;101470.81;5034925;28;20524;-75
2021/08/09 05:43:51;;;;;;;10.93;2.78;;;;;;;13.58;82.09;101476.28;5034809;28;20405;-75
2021/08/09 05:46:16;;;;;;;19.38;3.50;;;;;;;13.55;82.36;101479.25;5034762;28;20033;-75
2021/08/09 05:48:42;;;;;;;14.73;3.45;;;;;;;13.52;83.06;101479.53;5034833;28;20037;-75
2021/08/09 05:51:07;;;;;;;26.58;3.67;;;;;;;13.50;82.74;101487.72;5034602;28;20029;-75
2021/08/09 05:53:32;;;;;;;17.00;3.20;;;;;;;13.50;83.06;101485.03;5034686;28;20083;-75
2021/08/09 05:55:58;;;;;;;20.33;3.00;;;;;;;13.51;82.74;101489.41;5034310;28;20385;-75
2021/08/09 05:58:23;;;;;;;18.55;3.47;;;;;;;13.52;82.76;101487.56;5035096;28;20386;-75
2021/08/09 06:00:49;;;;;;;15.77;3.65;;;;;;;13.50;83.33;101485.03;5034305;28;20087;-76
2021/08/09 06:03:18;;;;;;;18.23;3.40;;;;;;;13.51;83.11;101486.72;5034374;28;20045;-75
2021/08/09 06:05:43;;;;;;;18.05;3.45;;;;;;;13.56;83.14;101486.31;5034751;28;20116;-75
2021/08/09 06:08:09;;;;;;;15.75;3.50;;;;;;;13.62;82.59;101491.06;5034194;28;20071;-75
2021/08/09 06:10:34;;;;;;;20.00;3.85;;;;;;;13.67;82.19;101485.28;5034807;28;20450;-75
2021/08/09 06:12:59;;;;;;;14.30;3.67;;;;;;;13.73;82.20;101480.22;5034039;28;20033;-75
2021/08/09 06:15:25;;;;;;;16.95;3.30;;;;;;;13.80;82.64;101482.31;5034397;28;20137;-75
2021/08/09 06:17:50;;;;;;;18.40;3.47;;;;;;;13.89;82.52;101482.28;5034183;28;20461;-76
2021/08/09 06:20:15;;;;;;;14.07;3.13;;;;;;;14.02;81.96;101473.13;5034353;28;20049;-75
2021/08/09 06:22:41;;;;;;;14.93;2.90;;;;;;;14.12;80.83;101473.88;5016725;28;20117;-75
2021/08/09 06:25:07;;;;;;;15.00;3.15;;;;;;;14.16;81.16;101479.81;5034093;28;20030;-75
2021/08/09 06:27:32;;;;;;;22.17;3.60;;;;;;;14.20;81.26;101483.88;5034149;28;20041;-75
2021/08/09 06:29:58;;;;;;;13.10;2.85;;;;;;;14.22;80.46;101485.41;5034600;28;20041;-74
2021/08/09 06:32:24;;;;;;;10.32;2.22;;;;;;;14.20;79.69;101482.03;5034069;28;20033;-75
2021/08/09 06:34:49;;;;;;;11.63;2.67;;;;;;;14.23;79.18;101484.41;5033910;28;20116;-74
2021/08/09 06:37:16;;;;;;;24.30;4.03;;;;;;;14.28;79.40;101486.66;5016307;28;20137;-85
2021/08/09 06:39:41;;;;;;;13.15;3.05;;;;;;;14.37;79.49;101490.28;5033842;28;20045;-81
2021/08/09 06:42:08;;;;;;;15.05;2.45;;;;;;;14.50;78.83;101489.94;5033892;28;20037;-73
2021/08/09 06:44:33;;;;;;;7.95;2.22;;;;;;;14.68;77.93;101492.69;5033793;28;20057;-73
2021/08/09 06:46:59;;;;;;;12.65;2.45;;;;;;;14.83;77.20;101490.34;5034469;28;20116;-72
2021/08/09 06:49:25;;;;;;;13.70;2.10;;;;;;;14.98;76.45;101496.88;5033818;28;20067;-74
2021/08/09 06:51:51;;;;;;;7.75;2.25;;;;;;;15.19;76.29;101483.16;5033862;28;20033;-73
2021/08/09 06:54:20;;;;;;;10.05;2.50;;;;;;;15.39;75.17;101486.53;5033402;28;20029;-74
2021/08/09 06:56:45;;;;;;;11.88;2.38;;;;;;;15.61;72.07;101492.38;5034091;28;20450;-72
2021/08/09 06:59:11;;;;;;;18.33;3.55;;;;;;;15.81;71.70;101485.03;5016414;28;20053;-73
2021/08/09 07:01:37;;;;;;;9.77;2.30;;;;;;;15.89;71.92;101486.91;5033705;28;20069;-72
2021/08/09 07:04:02;;;;;;;10.20;2.58;;;;;;;16.01;72.48;101496.38;5033035;28;20030;-75
2021/08/09 07:06:28;;;;;;;14.23;2.65;;;;;;;16.17;72.03;101483.03;5015530;28;20032;-75
2021/08/09 07:08:54;;;;;;;9.57;2.20;;;;;;;16.25;72.35;101500.19;5015920;28;20053;-75
2021/08/09 07:11:19;;;;;;;8.43;2.70;;;;;;;16.17;71.48;101503.69;5033473;28;20042;-73
2021/08/09 07:13:45;;;;;;;14.52;2.42;;;;;;;16.02;70.95;101493.53;5033229;28;20052;-73
2021/08/09 07:16:11;;;;;;;7.97;2.42;;;;;;;15.83;72.47;101499.94;5033376;28;20034;-75
2021/08/09 07:18:37;;;;;;;9.43;2.03;;;;;;;15.65;75.10;101496.44;5033628;28;20040;-74
2021/08/09 07:21:03;;;;;;;9.32;2.40;;;;;;;15.53;75.04;101498.53;5033064;28;20041;-74
2021/08/09 07:23:28;;;;;;;18.33;2.83;;;;;;;15.46;75.49;101506.34;5033617;28;20030;-74
2021/08/09 07:25:54;;;;;;;14.10;2.67;;;;;;;15.47;74.71;101505.34;5033065;28;20040;-73
2021/08/09 07:28:20;;;;;;;6.70;1.92;;;;;;;15.38;74.82;101500.09;5015629;28;20136;-74
2021/08/09 07:30:45;;;;;;;14.63;2.50;;;;;;;15.38;75.18;101503.59;5033245;28;20029;-74
2021/08/09 07:33:11;;;;;;;12.38;2.10;;;;;;;15.36;75.62;101505.59;5032879;28;20044;-74
2021/08/09 07:35:37;;;;;;;8.45;2.20;;;;;;;15.40;75.25;101492.72;5033041;28;20441;-72
2021/08/09 07:38:03;;;;;;;8.27;2.00;;;;;;;15.55;75.97;101498.38;5015549;28;20363;-72
2021/08/09 07:40:28;;;;;;;11.02;2.33;;;;;;;15.78;75.20;101501.41;5033170;28;20083;-72
2021/08/09 07:42:54;;;;;;;10.73;2.45;;;;;;;16.03;73.63;101499.72;5033213;28;20037;-72
2021/08/09 07:45:20;;;;;;;6.47;2.05;;;;;;;16.26;73.68;101494.66;5033318;28;20057;-72
2021/08/09 07:47:51;;;;;;;14.27;2.47;;;;;;;16.53;71.40;101492.75;5033107;28;20037;-72
2021/08/09 07:50:17;;;;;;;6.82;2.22;;;;;;;16.81;70.89;101489.81;5033813;28;20025;-72
2021/08/09 07:52:42;;;;;;;11.10;2.30;;;;;;;16.98;71.86;101493.41;5033190;28;20029;-72
2021/08/09 07:55:08;;;;;;;13.07;2.78;;;;;;;17.21;69.82;101496.28;5033038;28;20029;-72
2021/08/09 07:57:33;;;;;;;10.27;2.53;;;;;;;17.54;67.27;101494.47;5032930;28;20079;-73
2021/08/09 07:59:58;;;;;;;5.93;2.13;;;;;;;17.73;66.69;101485.16;5032972;28;20390;-72
2021/08/09 08:02:24;;;;;;;10.25;2.85;;;;;;;17.61;65.81;101486.53;5033057;28;20131;-72
2021/08/09 08:04:49;;;;;;;6.20;2.00;;;;;;;17.51;67.34;101494.81;5033270;28;20041;-72
2021/08/09 08:07:15;;;;;;;10.57;2.75;;;;;;;17.43;67.25;101489.41;5032955;28;20033;-75
2021/08/09 08:09:40;;;;;;;9.82;2.20;;;;;;;17.36;66.77;101483.00;5033305;28;20080;-76
2021/08/09 08:12:06;;;;;;;13.05;2.25;;;;;;;17.45;66.25;101484.69;5032628;28;20401;-75
2021/08/09 08:14:31;;;;;;;6.45;2.30;;;;;;;17.56;65.76;101483.53;5032938;28;20029;-75
2021/08/09 08:16:56;;;;;;;9.45;2.78;;;;;;;17.68;66.78;101475.94;5035759;28;20059;-76
2021/08/09 08:19:22;;;;;;;9.20;2.60;;;;;;;17.86;65.92;101473.06;5036677;28;20068;-73
2021/08/09 08:21:48;;;;;;;9.88;2.40;;;;;;;18.04;64.02;101479.09;5036489;28;20458;-75
2021/08/09 08:24:13;;;;;;;14.00;2.50;;;;;;;18.02;64.41;101472.19;5036394;28;20038;-74
2021/08/09 08:26:39;;;;;;;11.18;2.35;;;;;;;18.00;65.08;101476.91;5036455;28;20083;-75
2021/08/09 08:29:07;;;;;;;8.07;2.35;;;;;;;17.93;64.29;101477.59;5036408;28;20424;-75
2021/08/09 08:31:32;;;;;;;8.60;2.55;;;;;;;18.13;64.40;101478.03;5036122;28;20505;-75
2021/08/09 08:33:58;;;;;;;10.63;2.38;;;;;;;18.16;65.12;101482.25;5035965;28;20045;-75
2021/08/09 08:36:23;;;;;;;7.40;2.45;;;;;;;18.10;64.74;101480.25;5035580;28;20111;-75
2021/08/09 08:38:49;;;;;;;10.27;2.40;;;;;;;17.95;64.61;101480.13;5036239;28;20030;-76
2021/08/09 08:41:16;;;;;;;9.65;2.50;;;;;;;17.93;65.10;101477.59;5035903;28;20108;-76
2021/08/09 08:43:42;;;;;;;12.90;2.35;;;;;;;17.96;65.15;101484.50;5036197;28;20021;-76
2021/08/09 08:46:09;;;;;;;8.95;2.20;;;;;;;17.81;65.04;101489.72;5035988;28;20033;-74
2021/08/09 08:48:37;;;;;;;9.35;2.58;;;;;;;17.97;65.66;101487.03;5036425;28;20052;-71
2021/08/09 08:51:03;;;;;;;9.98;2.53;;;;;;;18.11;63.43;101485.47;5035650;28;20099;-70
2021/08/09 08:53:36;;;;;;;5.05;2.05;;;;;;;18.23;62.45;101493.19;5036278;28;20048;-70
2021/08/09 08:56:08;;;;;;;9.13;2.10;;;;;;;18.29;64.51;101497.88;5039932;28;20055;-71
2021/08/09 08:58:35;;;;;;;8.13;2.30;;;;;;;18.32;64.76;101497.53;5039697;28;20096;-71
2021/08/09 09:01:00;;;;;;;8.77;2.35;;;;;;;18.20;64.29;101506.97;5036397;28;20037;-71
2021/08/09 09:03:28;;;;;;;6.53;2.30;;;;;;;18.08;64.90;101514.59;5035655;28;20040;-71
2021/08/09 09:06:06;;;;;;;12.15;2.47;;;;;;;17.93;64.53;101507.22;5035719;28;20038;-72
2021/08/09 09:08:46;;;;;;;6.60;2.40;;;;;;;17.92;65.50;101502.00;5035447;28;20049;-71
2021/08/09 09:11:23;;;;;;;10.90;2.95;;;;;;;17.95;64.82;101504.34;5035299;28;20029;-71
2021/08/09 09:14:00;;;;;;;5.70;2.45;;;;;;;17.78;64.81;101514.28;5035335;28;20033;-70
2021/08/09 09:16:28;;;;;;;6.00;2.13;;;;;;;17.68;68.05;101508.25;5035148;28;20036;-70
2021/08/09 09:18:58;;;;;;;9.00;2.72;;;;;;;17.57;67.33;101510.25;5035221;28;20036;-71
2021/08/09 09:21:40;;;;;;;10.13;2.42;;;;;;;17.53;71.05;101508.09;5034930;28;20033;-71
2021/08/09 09:24:15;;;;;;;10.93;2.67;;;;;;;17.50;69.51;101513.81;5035470;28;20029;-70
2021/08/09 09:26:43;;;;;;;6.15;2.38;;;;;;;17.49;68.53;101514.81;5035399;28;20034;-70
2021/08/09 09:29:14;;;;;;;5.35;2.17;;;;;;;17.62;68.64;101512.44;5017545;28;20034;-70
2021/08/09 09:31:41;;;;;;;5.05;2.30;;;;;;;17.81;66.46;101511.25;5035771;28;20450;-71
2021/08/09 09:34:13;;;;;;;8.30;2.40;;;;;;;17.66;66.52;101507.56;5034593;28;20516;-70
2021/08/09 09:36:56;;;;;;;5.68;2.53;;;;;;;17.69;67.58;101507.22;5034568;28;20048;-70
2021/08/09 09:39:40;;;;;;;9.93;2.63;;;;;;;17.74;67.93;101515.63;5017507;28;20422;-71
2021/08/09 09:42:09;;;;;;;7.72;2.35;;;;;;;17.76;66.34;101511.75;5035024;28;20120;-70
2021/08/09 09:44:37;;;;;;;5.22;2.15;;;;;;;17.83;68.38;101506.53;5034932;28;20561;-70
2021/08/09 09:47:21;;;;;;;5.43;2.60;;;;;;;17.79;68.17;101513.25;5035022;28;20037;-71
2021/08/09 09:49:52;;;;;;;6.20;2.30;;;;;;;17.75;68.94;101519.97;5034849;28;20103;-71
2021/08/09 09:52:38;;;;;;;11.55;2.80;;;;;;;17.62;69.42;101515.97;5034745;28;20029;-72
2021/08/09 09:55:09;;;;;;;6.00;2.10;;;;;;;17.48;69.38;101507.72;5035343;28;20025;-70
2021/08/09 09:57:36;;;;;;;8.68;2.40;;;;;;;17.36;70.28;101517.97;5035058;28;20091;-71
2021/08/09 10:00:07;;;;;;;7.63;2.33;;;;;;;17.33;70.51;101519.19;5034709;28;20030;-71
2021/08/09 10:02:32;;;;;;;8.73;2.58;;;;;;;17.41;69.88;101513.78;5035089;28;20373;-71
2021/08/09 10:04:58;;;;;;;14.45;2.55;;;;;;;17.70;68.55;101516.97;5034561;28;20112;-71
2021/08/09 10:07:25;;;;;;;9.27;2.45;;;;;;;18.08;68.17;101507.34;5016515;28;20034;-71
2021/08/09 10:09:54;;;;;;;4.88;2.20;;;;;;;18.78;67.34;101504.84;5016212;28;20053;-71
2021/08/09 10:12:24;;;;;;;5.32;1.98;;;;;;;19.27;63.38;101501.91;5034238;28;20032;-71
2021/08/09 10:14:51;;;;;;;4.67;1.80;;;;;;;19.81;61.05;101514.44;5035096;28;20025;-71
2021/08/09 10:17:17;;;;;;;5.32;1.85;;;;;;;20.08;59.76;101504.88;5035113;28;20099;-70
2021/08/09 10:19:47;;;;;;;2.92;1.88;;;;;;;20.18;57.33;101515.41;5034267;28;20397;-71
2021/08/09 10:22:13;;;;;;;6.90;1.58;;;;;;;19.90;59.99;101512.50;5034267;28;20112;-70
2021/08/09 10:24:40;;;;;;;4.32;2.00;;;;;;;19.53;59.86;101506.06;5034124;28;20473;-71
2021/08/09 10:27:06;;;;;;;8.15;2.08;;;;;;;19.48;60.83;101506.63;5034208;28;20045;-71
2021/08/09 10:29:31;;;;;;;5.63;2.03;;;;;;;19.86;59.97;101512.00;5033975;28;20048;-71
2021/08/09 10:32:19;;;;;;;6.03;2.15;;;;;;;19.69;58.60;101505.06;5034437;28;20042;-71
2021/08/09 10:34:45;;;;;;;6.38;2.10;;;;;;;19.40;59.60;101517.47;5033691;28;20526;-70
2021/08/09 10:37:20;;;;;;;5.50;2.00;;;;;;;19.18;61.43;101505.66;5033598;28;20064;-70
2021/08/09 10:39:56;;;;;;;4.80;2.00;;;;;;;18.66;62.63;101513.38;5033448;28;20067;-70
2021/08/09 10:42:34;;;;;;;4.10;1.95;;;;;;;18.38;65.57;101506.75;5034154;28;20044;-70
2021/08/09 10:45:00;;;;;;;8.52;2.38;;;;;;;18.23;64.39;101495.88;5033936;28;20024;-71
2021/08/09 10:47:44;;;;;;;3.65;1.98;;;;;;;18.52;64.78;101500.63;5033476;28;20381;-71
2021/08/09 10:50:11;;;;;;;4.20;1.85;;;;;;;18.74;64.36;101499.00;5033865;28;20018;-70
2021/08/09 10:52:38;;;;;;;4.70;2.20;;;;;;;18.91;62.17;101501.63;5033685;28;20021;-70
2021/08/09 10:55:31;;;;;;;6.57;2.30;;;;;;;18.77;63.87;101506.72;5033721;28;20064;-71
2021/08/09 10:58:02;;;;;;;7.53;2.53;;;;;;;18.40;64.00;101508.25;5034258;28;20033;-70
2021/08/09 11:00:42;;;;;;;6.00;2.60;;;;;;;17.82;69.12;101525.53;5033648;28;20064;-73
2021/08/09 11:03:20;;;;;;;9.53;3.50;;;;;;;16.98;74.31;101515.75;5033907;28;20055;-69
2021/08/09 11:05:45;;;;;;;10.93;3.15;;;;;;;16.21;78.55;101530.06;5033659;28;20350;-68
2021/08/09 11:08:22;;;;;;;8.95;3.05;;;;;;;15.76;80.05;101533.72;5033106;28;20049;-68
2021/08/09 11:10:50;;;;;;;10.90;4.32;;;;;;;15.52;84.40;101529.88;5033747;28;20026;-69
2021/08/09 11:13:16;;;;;;;7.43;4.15;;;;;;;15.71;85.64;101530.69;5033522;28;20417;-69
2021/08/09 11:16:03;;;;;;;8.93;4.72;;;;;;;16.50;85.94;101533.38;5033436;28;20029;-69
2021/08/09 11:18:29;;;;;;;6.40;3.65;;;;;;;17.15;79.27;101521.97;5033513;28;20029;-69
2021/08/09 11:21:05;;;;;;;5.57;3.28;;;;;;;17.27;79.20;101528.75;5033743;28;20057;-69
2021/08/09 11:23:38;;;;;;;5.95;3.30;;;;;;;17.17;78.68;101528.06;5033802;28;20037;-71